createdAt,value
2023-04-22T00:00:43.977Z,11.55
2023-04-22T00:03:12.323Z,11.59
2023-04-22T00:05:42.082Z,11.64
2023-04-22T00:08:10.455Z,11.61
2023-04-22T00:10:38.608Z,11.61
2023-04-22T00:13:06.820Z,11.63
2023-04-22T00:15:36.226Z,11.67
2023-04-22T00:18:04.729Z,11.69
2023-04-22T00:20:33.150Z,11.74
2023-04-22T00:23:01.398Z,11.78
2023-04-22T00:25:29.618Z,11.81
2023-04-22T00:27:57.818Z,11.80
2023-04-22T00:30:26.089Z,11.91
2023-04-22T00:32:56.203Z,11.97
2023-04-22T00:35:24.328Z,12.03
2023-04-22T00:37:52.625Z,11.94
2023-04-22T00:40:21.753Z,11.83
2023-04-22T00:42:52.039Z,11.77
2023-04-22T00:45:21.769Z,11.77
2023-04-22T00:47:50.356Z,11.81
2023-04-22T00:50:20.689Z,11.82
2023-04-22T00:52:48.830Z,11.74
2023-04-22T00:55:17.358Z,11.72
2023-04-22T00:57:45.895Z,11.71
2023-04-22T01:00:15.276Z,11.72
2023-04-22T01:02:43.697Z,11.75
2023-04-22T01:05:12.078Z,11.81
2023-04-22T01:07:41.582Z,11.82
2023-04-22T01:10:10.533Z,11.90
2023-04-22T01:12:38.724Z,11.97
2023-04-22T01:15:08.770Z,11.95
2023-04-22T01:17:37.188Z,11.97
2023-04-22T01:20:05.967Z,11.90
2023-04-22T01:22:40.441Z,11.86
2023-04-22T01:25:13.746Z,11.82
2023-04-22T01:27:42.230Z,11.80
2023-04-22T01:30:11.988Z,11.76
2023-04-22T01:32:41.243Z,11.68
2023-04-22T01:35:09.947Z,11.56
2023-04-22T01:37:38.426Z,11.47
2023-04-22T01:40:09.284Z,11.41
2023-04-22T01:42:39.202Z,11.36
2023-04-22T01:45:08.206Z,11.40
2023-04-22T01:47:36.409Z,11.43
2023-04-22T01:50:04.737Z,11.42
2023-04-22T01:52:32.788Z,11.31
2023-04-22T01:55:02.849Z,11.27
2023-04-22T01:57:31.031Z,11.22
2023-04-22T02:00:00.719Z,11.23
2023-04-22T02:02:29.065Z,11.25
2023-04-22T02:04:57.350Z,11.17
2023-04-22T02:07:25.750Z,11.09
2023-04-22T02:09:53.961Z,10.97
2023-04-22T02:12:22.173Z,11.03
2023-04-22T02:14:50.279Z,11.03
2023-04-22T02:17:19.885Z,11.00
2023-04-22T02:19:48.034Z,10.97
2023-04-22T02:22:16.437Z,10.99
2023-04-22T02:24:44.595Z,10.88
2023-04-22T02:27:12.736Z,10.78
2023-04-22T02:29:42.140Z,10.74
2023-04-22T02:32:10.439Z,10.75
2023-04-22T02:34:39.828Z,10.72
2023-04-22T02:37:26.567Z,10.59
2023-04-22T02:39:54.739Z,10.54
2023-04-22T02:42:22.821Z,10.49
2023-04-22T02:44:50.949Z,10.49
2023-04-22T02:47:18.959Z,10.49
2023-04-22T02:49:48.591Z,10.51
2023-04-22T02:52:16.646Z,10.52
2023-04-22T02:54:44.784Z,10.46
2023-04-22T02:57:12.863Z,10.51
2023-04-22T02:59:41.233Z,10.44
2023-04-22T03:02:10.766Z,10.41
2023-04-22T03:04:39.146Z,10.38
2023-04-22T03:07:08.775Z,10.38
2023-04-22T03:09:37.080Z,10.42
2023-04-22T03:12:05.806Z,10.46
2023-04-22T03:14:33.968Z,10.45
2023-04-22T03:17:02.492Z,10.39
2023-04-22T03:19:30.910Z,10.32
2023-04-22T03:21:59.310Z,10.29
2023-04-22T03:24:29.068Z,10.26
2023-04-22T03:26:57.222Z,10.23
2023-04-22T03:29:25.369Z,10.25
2023-04-22T03:31:55.613Z,10.24
2023-04-22T03:34:23.866Z,10.23
2023-04-22T03:36:51.972Z,10.18
2023-04-22T03:39:20.238Z,10.18
2023-04-22T03:41:49.779Z,10.15
2023-04-22T03:44:18.007Z,10.14
2023-04-22T03:46:46.068Z,10.07
2023-04-22T03:49:14.601Z,10.00
2023-04-22T03:51:42.747Z,9.95
2023-04-22T03:54:10.919Z,9.93
2023-04-22T03:56:39.206Z,9.93
2023-04-22T03:59:08.695Z,9.94
2023-04-22T04:01:36.899Z,10.03
2023-04-22T04:04:05.370Z,10.09
2023-04-22T04:06:33.594Z,10.17
2023-04-22T04:09:02.305Z,10.29
2023-04-22T04:11:30.409Z,10.40
2023-04-22T04:13:58.723Z,10.44
2023-04-22T04:16:28.302Z,10.54
2023-04-22T04:18:56.575Z,10.63
2023-04-22T04:21:24.690Z,10.76
2023-04-22T04:23:53.040Z,10.81
2023-04-22T04:26:21.593Z,10.96
2023-04-22T04:28:50.276Z,11.05
2023-04-22T04:31:18.837Z,11.10
2023-04-22T04:33:48.831Z,11.33
2023-04-22T04:36:16.929Z,11.30
2023-04-22T04:38:45.357Z,11.27
2023-04-22T04:41:14.592Z,11.27
2023-04-22T04:43:42.956Z,11.27
2023-04-22T04:46:11.391Z,11.27
2023-04-22T04:48:39.643Z,11.34
2023-04-22T04:51:09.514Z,11.48
2023-04-22T04:53:37.731Z,11.59
2023-04-22T04:56:06.576Z,11.69
2023-04-22T04:58:34.700Z,11.79
2023-04-22T05:01:02.954Z,12.07
2023-04-22T05:03:31.205Z,12.09
2023-04-22T05:05:59.730Z,12.00
2023-04-22T05:08:29.331Z,12.36
2023-04-22T05:10:57.466Z,12.37
2023-04-22T05:13:26.514Z,12.64
2023-04-22T05:15:54.759Z,12.82
2023-04-22T05:18:23.458Z,12.77
2023-04-22T05:20:51.561Z,12.87
2023-04-22T05:23:19.654Z,12.93
2023-04-22T05:25:51.402Z,13.09
2023-04-22T05:28:21.078Z,13.22
2023-04-22T05:30:49.224Z,13.19
2023-04-22T05:33:17.365Z,13.29
2023-04-22T05:35:45.575Z,13.28
2023-04-22T05:38:13.594Z,13.37
2023-04-22T05:40:41.918Z,13.56
2023-04-22T05:43:11.866Z,13.62
2023-04-22T05:45:40.098Z,13.66
2023-04-22T05:48:08.577Z,13.58
2023-04-22T05:50:36.959Z,13.38
2023-04-22T05:53:08.016Z,13.33
2023-04-22T05:55:36.481Z,13.31
2023-04-22T05:58:04.665Z,13.38
2023-04-22T06:00:34.298Z,13.63
2023-04-22T06:03:02.456Z,13.80
2023-04-22T06:05:30.862Z,13.89
2023-04-22T06:07:59.152Z,14.02
2023-04-22T06:10:27.442Z,14.14
2023-04-22T06:12:56.077Z,14.17
2023-04-22T06:15:24.220Z,14.23
2023-04-22T06:17:53.707Z,14.40
2023-04-22T06:20:22.296Z,14.58
2023-04-22T06:22:51.058Z,14.54
2023-04-22T06:25:19.345Z,14.48
2023-04-22T06:27:47.520Z,14.63
2023-04-22T06:30:16.176Z,14.69
2023-04-22T06:32:44.334Z,14.72
2023-04-22T06:35:13.785Z,14.63
2023-04-22T06:37:42.547Z,14.69
2023-04-22T06:40:11.694Z,14.77
2023-04-22T06:42:39.924Z,14.78
2023-04-22T06:45:09.631Z,14.72
2023-04-22T06:47:37.862Z,14.71
2023-04-22T06:50:06.823Z,14.82
2023-04-22T06:52:37.012Z,15.03
2023-04-22T06:55:05.457Z,14.93
2023-04-22T06:57:33.675Z,14.99
2023-04-22T07:00:03.743Z,15.22
2023-04-22T07:02:32.231Z,15.45
2023-04-22T07:05:00.730Z,15.44
2023-04-22T07:07:29.241Z,15.45
2023-04-22T07:09:59.875Z,15.59
2023-04-22T07:12:28.038Z,15.60
2023-04-22T07:14:57.180Z,15.47
2023-04-22T07:17:25.638Z,15.65
2023-04-22T07:19:54.364Z,15.69
2023-04-22T07:22:22.617Z,15.68
2023-04-22T07:24:50.739Z,15.67
2023-04-22T07:27:20.534Z,15.72
2023-04-22T07:29:48.578Z,15.39
2023-04-22T07:32:16.742Z,15.75
2023-04-22T07:34:44.949Z,15.75
2023-04-22T07:37:13.119Z,15.97
2023-04-22T07:39:42.002Z,16.12
2023-04-22T07:42:10.321Z,16.19
2023-04-22T07:44:39.933Z,16.34
2023-04-22T07:47:08.853Z,16.21
2023-04-22T07:49:37.502Z,16.19
2023-04-22T07:52:06.003Z,16.28
2023-04-22T07:54:34.115Z,16.24
2023-04-22T07:57:02.304Z,16.21
2023-04-22T07:59:30.906Z,16.26
2023-04-22T08:02:01.497Z,16.35
2023-04-22T08:04:30.097Z,16.40
2023-04-22T08:06:58.472Z,16.48
2023-04-22T08:09:26.603Z,16.46
2023-04-22T08:11:55.174Z,16.47
2023-04-22T08:14:23.372Z,16.64
2023-04-22T08:16:53.227Z,16.78
2023-04-22T08:19:25.253Z,16.85
2023-04-22T08:21:53.971Z,16.89
2023-04-22T08:24:22.504Z,17.00
2023-04-22T08:26:50.824Z,17.12
2023-04-22T08:29:20.254Z,17.21
2023-04-22T08:31:51.030Z,17.28
2023-04-22T08:34:19.252Z,16.99
2023-04-22T08:36:48.863Z,16.98
2023-04-22T08:39:17.844Z,17.05
2023-04-22T08:41:47.605Z,17.05
2023-04-22T08:44:16.011Z,17.07
2023-04-22T08:46:47.251Z,17.09
2023-04-22T08:49:16.704Z,17.15
2023-04-22T08:51:46.541Z,17.25
2023-04-22T08:54:16.444Z,17.52
2023-04-22T08:56:46.553Z,17.73
2023-04-22T08:59:15.150Z,17.93
2023-04-22T09:01:44.569Z,18.28
2023-04-22T09:04:15.384Z,18.21
2023-04-22T09:06:43.584Z,18.16
2023-04-22T09:09:11.699Z,18.15
2023-04-22T09:11:41.292Z,18.30
2023-04-22T09:14:09.365Z,18.44
2023-04-22T09:16:43.720Z,18.62
2023-04-22T09:19:15.221Z,18.81
2023-04-22T09:21:43.858Z,18.92
2023-04-22T09:24:13.143Z,19.10
2023-04-22T09:26:43.867Z,19.05
2023-04-22T09:29:15.909Z,19.19
2023-04-22T09:31:44.260Z,19.41
2023-04-22T09:34:12.394Z,19.38
2023-04-22T09:36:41.148Z,19.26
2023-04-22T09:39:09.815Z,18.93
2023-04-22T09:41:39.865Z,19.16
2023-04-22T09:44:16.531Z,19.37
2023-04-22T09:46:45.469Z,19.33
2023-04-22T09:49:14.036Z,19.26
2023-04-22T09:51:43.269Z,19.01
2023-04-22T09:54:12.586Z,18.76
2023-04-22T09:56:49.523Z,18.23
2023-04-22T09:59:23.405Z,18.11
2023-04-22T10:01:54.000Z,18.49
2023-04-22T10:04:23.582Z,18.08
2023-04-22T10:06:52.331Z,18.27
2023-04-22T10:09:21.926Z,18.61
2023-04-22T10:11:52.782Z,18.80
2023-04-22T10:14:22.751Z,18.83
2023-04-22T10:16:54.979Z,18.67
2023-04-22T10:19:24.875Z,18.77
2023-04-22T10:21:57.164Z,18.82
2023-04-22T10:24:28.292Z,19.19
2023-04-22T10:26:58.813Z,19.19
2023-04-22T10:29:36.912Z,19.02
2023-04-22T10:32:09.046Z,18.93
2023-04-22T10:34:39.512Z,18.94
2023-04-22T10:37:09.252Z,19.27
2023-04-22T10:39:37.547Z,18.97
2023-04-22T10:42:15.562Z,18.96
2023-04-22T10:44:50.793Z,19.08
2023-04-22T10:47:29.737Z,18.79
2023-04-22T10:50:20.776Z,18.55
2023-04-22T10:52:51.450Z,18.45
2023-04-22T10:55:21.536Z,18.42
2023-04-22T10:57:51.643Z,18.39
2023-04-22T11:00:24.447Z,18.12
2023-04-22T11:02:55.192Z,18.23
2023-04-22T11:05:27.368Z,18.55
2023-04-22T11:07:56.991Z,19.26
2023-04-22T11:10:44.080Z,19.25
2023-04-22T11:13:15.223Z,19.17
2023-04-22T11:15:46.283Z,19.07
2023-04-22T11:18:22.425Z,18.91
2023-04-22T11:20:51.958Z,18.66
2023-04-22T11:23:25.316Z,17.38
2023-04-22T11:25:58.033Z,16.83
2023-04-22T11:28:26.578Z,16.54
2023-04-22T11:31:03.540Z,16.62
2023-04-22T11:33:33.460Z,16.55
2023-04-22T11:36:02.072Z,16.27
2023-04-22T11:38:30.168Z,16.11
2023-04-22T11:40:58.970Z,16.17
2023-04-22T11:43:27.170Z,15.91
2023-04-22T11:45:58.556Z,15.84
2023-04-22T11:48:26.834Z,16.04
2023-04-22T11:51:11.247Z,15.81
2023-04-22T11:53:41.305Z,15.74
2023-04-22T11:56:09.500Z,15.73
2023-04-22T11:58:41.133Z,15.44
2023-04-22T12:01:14.996Z,15.20
2023-04-22T12:03:44.659Z,14.92
2023-04-22T12:06:13.240Z,15.05
2023-04-22T12:08:43.784Z,14.93
2023-04-22T12:11:13.124Z,14.84
2023-04-22T12:13:44.090Z,14.81
2023-04-22T12:16:15.358Z,14.93
2023-04-22T12:18:50.011Z,14.80
2023-04-22T12:21:21.632Z,14.35
2023-04-22T12:23:51.835Z,13.90
2023-04-22T12:26:23.657Z,13.48
2023-04-22T12:28:55.572Z,13.23
2023-04-22T12:31:25.835Z,13.03
2023-04-22T12:33:55.528Z,12.89
2023-04-22T12:36:25.197Z,12.75
2023-04-22T12:38:55.756Z,12.67
2023-04-22T12:41:24.343Z,12.68
2023-04-22T12:43:52.953Z,12.67
2023-04-22T12:46:21.428Z,12.67
2023-04-22T12:48:51.142Z,12.61
2023-04-22T12:51:19.431Z,12.69
2023-04-22T12:53:48.958Z,12.78
2023-04-22T12:56:17.178Z,12.81
2023-04-22T12:58:45.455Z,12.92
2023-04-22T13:01:13.645Z,12.99
2023-04-22T13:03:42.055Z,13.30
2023-04-22T13:06:11.954Z,13.57
2023-04-22T13:08:40.169Z,13.79
2023-04-22T13:11:08.347Z,14.07
2023-04-22T13:13:36.680Z,14.43
2023-04-22T13:16:04.917Z,14.49
2023-04-22T13:18:33.164Z,14.62
2023-04-22T13:21:01.286Z,14.79
2023-04-22T13:23:31.016Z,15.10
2023-04-22T13:26:03.751Z,15.34
2023-04-22T13:28:32.184Z,15.69
2023-04-22T13:31:01.101Z,15.66
2023-04-22T13:33:29.334Z,15.88
2023-04-22T13:35:57.493Z,16.01
2023-04-22T13:38:25.833Z,16.18
2023-04-22T13:40:58.714Z,16.35
2023-04-22T13:43:27.719Z,16.39
2023-04-22T13:45:56.835Z,16.38
2023-04-22T13:48:25.229Z,16.48
2023-04-22T13:50:53.637Z,16.39
2023-04-22T13:53:21.730Z,16.36
2023-04-22T13:55:50.282Z,16.22
2023-04-22T13:58:19.888Z,16.27
2023-04-22T14:00:48.446Z,16.64
2023-04-22T14:03:17.000Z,16.55
2023-04-22T14:05:45.485Z,16.37
2023-04-22T14:08:13.914Z,16.34
2023-04-22T14:10:42.189Z,16.14
2023-04-22T14:13:10.322Z,15.78
2023-04-22T14:15:39.875Z,15.63
2023-04-22T14:18:08.436Z,15.55
2023-04-22T14:20:36.789Z,15.52
2023-04-22T14:23:05.399Z,15.74
2023-04-22T14:25:33.621Z,15.71
2023-04-22T14:28:01.815Z,15.58
2023-04-22T14:30:29.973Z,15.54
2023-04-22T14:33:00.499Z,15.71
2023-04-22T14:35:28.788Z,15.67
2023-04-22T14:37:57.003Z,15.76
2023-04-22T14:40:28.157Z,15.94
2023-04-22T14:42:56.521Z,15.94
2023-04-22T14:45:26.485Z,16.04
2023-04-22T14:47:55.631Z,16.12
2023-04-22T14:50:26.843Z,16.27
2023-04-22T14:52:56.406Z,16.35
2023-04-22T14:55:24.987Z,16.21
2023-04-22T14:57:56.775Z,16.18
2023-04-22T15:00:25.549Z,16.27
2023-04-22T15:02:54.243Z,16.46
2023-04-22T15:05:23.683Z,16.50
2023-04-22T15:07:54.049Z,16.53
2023-04-22T15:10:22.478Z,16.63
2023-04-22T15:12:50.581Z,16.53
2023-04-22T15:15:19.219Z,16.39
2023-04-22T15:17:47.632Z,16.43
2023-04-22T15:20:17.041Z,16.65
2023-04-22T15:22:45.841Z,16.77
2023-04-22T15:25:17.915Z,16.50
2023-04-22T15:27:46.719Z,16.39
2023-04-22T15:30:15.969Z,16.48
2023-04-22T15:32:44.290Z,16.65
2023-04-22T15:35:12.460Z,16.57
2023-04-22T15:37:40.860Z,16.77
2023-04-22T15:40:11.124Z,16.57
2023-04-22T15:42:40.660Z,16.60
2023-04-22T15:45:09.870Z,16.33
2023-04-22T15:47:41.201Z,15.95
2023-04-22T15:50:11.313Z,16.19
2023-04-22T15:52:41.057Z,16.22
2023-04-22T15:55:11.287Z,16.38
2023-04-22T15:57:41.733Z,16.41
2023-04-22T16:00:14.118Z,16.24
2023-04-22T16:02:44.054Z,16.15
2023-04-22T16:05:14.269Z,16.07
2023-04-22T16:07:42.521Z,16.06
2023-04-22T16:10:12.078Z,15.93
2023-04-22T16:12:44.216Z,15.83
2023-04-22T16:15:14.450Z,15.68
2023-04-22T16:17:43.789Z,15.69
2023-04-22T16:20:12.412Z,15.69
2023-04-22T16:22:40.593Z,15.85
2023-04-22T16:25:10.537Z,15.77
2023-04-22T16:27:38.864Z,15.91
2023-04-22T16:30:09.773Z,15.94
2023-04-22T16:32:38.461Z,15.81
2023-04-22T16:35:07.729Z,15.84
2023-04-22T16:37:36.909Z,15.83
2023-04-22T16:40:08.097Z,15.75
2023-04-22T16:42:36.447Z,15.73
2023-04-22T16:45:05.050Z,15.61
2023-04-22T16:47:34.732Z,15.69
2023-04-22T16:50:03.022Z,15.61
2023-04-22T16:52:31.324Z,15.71
2023-04-22T16:55:00.453Z,15.54
2023-04-22T16:57:28.915Z,15.48
2023-04-22T16:59:57.111Z,15.40
2023-04-22T17:02:25.562Z,15.38
2023-04-22T17:04:55.458Z,15.32
2023-04-22T17:07:23.612Z,15.29
2023-04-22T17:09:51.766Z,15.24
2023-04-22T17:12:20.192Z,15.35
2023-04-22T17:14:48.355Z,15.22
2023-04-22T17:17:16.444Z,15.21
2023-04-22T17:19:44.792Z,15.15
2023-04-22T17:22:14.413Z,15.12
2023-04-22T17:24:42.594Z,15.05
2023-04-22T17:27:10.776Z,15.03
2023-04-22T17:29:38.933Z,15.02
2023-04-22T17:32:07.696Z,14.98
2023-04-22T17:34:35.934Z,14.98
2023-04-22T17:37:04.346Z,14.88
2023-04-22T17:39:33.902Z,14.85
2023-04-22T17:42:02.499Z,14.86
2023-04-22T17:44:31.191Z,14.89
2023-04-22T17:46:59.454Z,14.94
2023-04-22T17:49:27.599Z,14.98
2023-04-22T17:51:55.732Z,14.96
2023-04-22T17:54:24.546Z,14.86
2023-04-22T17:56:54.060Z,14.80
2023-04-22T17:59:22.252Z,14.79
2023-04-22T18:01:50.555Z,14.73
2023-04-22T18:04:19.033Z,14.69
2023-04-22T18:06:47.309Z,14.62
2023-04-22T18:09:15.465Z,14.60
2023-04-22T18:11:43.581Z,14.65
2023-04-22T18:14:15.836Z,14.64
2023-04-22T18:16:43.984Z,14.64
2023-04-22T18:19:12.165Z,14.59
2023-04-22T18:21:49.654Z,14.64
2023-04-22T18:24:25.395Z,14.72
2023-04-22T18:26:53.981Z,14.68
2023-04-22T18:29:23.963Z,14.63
2023-04-22T18:31:52.189Z,14.57
2023-04-22T18:34:20.516Z,14.53
2023-04-22T18:36:48.641Z,14.39
2023-04-22T18:39:16.875Z,14.29
2023-04-22T18:41:44.990Z,14.35
2023-04-22T18:44:13.162Z,14.21
2023-04-22T18:46:42.826Z,14.25
2023-04-22T18:49:11.036Z,14.13
2023-04-22T18:51:42.007Z,14.05
2023-04-22T18:54:10.416Z,14.08
2023-04-22T18:56:38.469Z,14.10
2023-04-22T18:59:06.566Z,14.15
2023-04-22T19:01:35.943Z,14.05
2023-04-22T19:04:07.516Z,14.03
2023-04-22T19:06:38.744Z,13.97
2023-04-22T19:09:07.062Z,13.96
2023-04-22T19:11:35.211Z,14.07
2023-04-22T19:14:03.656Z,13.97
2023-04-22T19:16:31.847Z,14.00
2023-04-22T19:18:59.914Z,13.79
2023-04-22T19:21:30.154Z,13.83
2023-04-22T19:23:58.872Z,13.69
2023-04-22T19:26:29.049Z,13.74
2023-04-22T19:28:57.301Z,13.66
2023-04-22T19:31:25.863Z,13.67
2023-04-22T19:33:54.219Z,13.63
2023-04-22T19:36:22.557Z,13.56
2023-04-22T19:38:52.144Z,13.54
2023-04-22T19:41:20.492Z,13.56
2023-04-22T19:43:48.957Z,13.60
2023-04-22T19:46:17.184Z,13.56
2023-04-22T19:48:45.856Z,13.56
2023-04-22T19:51:15.112Z,13.50
2023-04-22T19:53:43.488Z,13.53
2023-04-22T19:56:13.941Z,13.43
2023-04-22T19:58:43.613Z,13.43
2023-04-22T20:01:12.393Z,13.43
2023-04-22T20:03:41.258Z,13.28
2023-04-22T20:06:09.893Z,13.20
2023-04-22T20:08:41.885Z,13.24
2023-04-22T20:11:11.773Z,13.23
2023-04-22T20:13:42.350Z,13.22
2023-04-22T20:16:11.264Z,13.11
2023-04-22T20:18:39.765Z,12.93
2023-04-22T20:21:09.083Z,12.83
2023-04-22T20:23:37.792Z,12.74
2023-04-22T20:26:06.850Z,12.78
2023-04-22T20:28:46.419Z,12.88
2023-04-22T20:31:18.377Z,12.78
2023-04-22T20:33:46.840Z,12.71
2023-04-22T20:36:17.484Z,12.83
2023-04-22T20:38:47.510Z,12.80
2023-04-22T20:41:18.354Z,12.73
2023-04-22T20:43:48.370Z,12.77
2023-04-22T20:46:17.021Z,12.70
2023-04-22T20:48:45.327Z,12.62
2023-04-22T20:51:13.463Z,12.61
2023-04-22T20:53:41.820Z,12.55
2023-04-22T20:56:10.811Z,12.54
2023-04-22T20:58:38.872Z,12.53
2023-04-22T21:01:16.639Z,12.52
2023-04-22T21:03:54.961Z,12.61
2023-04-22T21:06:23.539Z,12.66
2023-04-22T21:08:52.078Z,12.67
2023-04-22T21:11:20.905Z,12.67
2023-04-22T21:13:49.805Z,12.65
2023-04-22T21:16:20.869Z,12.67
2023-04-22T21:18:50.104Z,12.65
2023-04-22T21:21:20.796Z,12.61
2023-04-22T21:23:49.878Z,12.63
2023-04-22T21:26:19.875Z,12.69
2023-04-22T21:28:49.798Z,12.68
2023-04-22T21:31:20.193Z,12.76
2023-04-22T21:33:48.378Z,12.75
2023-04-22T21:36:16.796Z,12.84
2023-04-22T21:38:45.419Z,12.80
2023-04-22T21:41:14.053Z,12.80
2023-04-22T21:43:42.149Z,12.77
2023-04-22T21:46:11.044Z,12.70
2023-04-22T21:48:41.322Z,12.72
2023-04-22T21:51:09.876Z,12.66
2023-04-22T21:53:38.197Z,12.63
2023-04-22T21:56:06.766Z,12.64
2023-04-22T21:58:34.903Z,12.66
2023-04-22T22:01:03.058Z,12.69
2023-04-22T22:03:31.636Z,12.60
2023-04-22T22:06:01.244Z,12.55
2023-04-22T22:08:30.205Z,12.50
2023-04-22T22:10:59.564Z,12.43
2023-04-22T22:13:27.751Z,12.41
2023-04-22T22:15:57.605Z,12.38
2023-04-22T22:18:25.816Z,12.31
2023-04-22T22:20:55.148Z,12.26
2023-04-22T22:23:27.086Z,12.31
2023-04-22T22:25:55.328Z,12.41
2023-04-22T22:28:23.552Z,12.34
2023-04-22T22:30:51.624Z,12.35
2023-04-22T22:33:19.733Z,12.33
2023-04-22T22:35:47.805Z,12.37
2023-04-22T22:38:15.930Z,12.36
2023-04-22T22:40:45.431Z,12.31
2023-04-22T22:43:13.838Z,12.25
2023-04-22T22:45:42.048Z,12.28
2023-04-22T22:48:10.317Z,12.27
2023-04-22T22:50:39.031Z,12.27
2023-04-22T22:53:11.227Z,12.20
2023-04-22T22:55:42.488Z,12.25
2023-04-22T22:58:22.568Z,12.20
2023-04-22T23:00:51.977Z,12.20
2023-04-22T23:03:20.795Z,12.31
2023-04-22T23:05:52.688Z,12.32
2023-04-22T23:08:20.807Z,12.24
2023-04-22T23:10:48.991Z,12.26
2023-04-22T23:13:18.427Z,12.18
2023-04-22T23:15:46.545Z,12.19
2023-04-22T23:18:17.603Z,12.17
2023-04-22T23:20:46.222Z,12.11
2023-04-22T23:23:17.096Z,12.09
2023-04-22T23:25:45.401Z,12.13
2023-04-22T23:28:14.167Z,12.17
2023-04-22T23:30:45.102Z,12.08
2023-04-22T23:33:15.660Z,12.01
2023-04-22T23:35:45.909Z,11.92
2023-04-22T23:38:14.040Z,11.91
2023-04-22T23:40:42.288Z,11.88
2023-04-22T23:43:10.342Z,11.83
2023-04-22T23:45:38.568Z,11.72
2023-04-22T23:48:08.806Z,11.67
2023-04-22T23:50:37.106Z,11.56
2023-04-22T23:53:05.238Z,11.52
2023-04-22T23:55:34.104Z,11.54
2023-04-22T23:58:03.168Z,11.55
